Time;durP1;ratioP1;P1;durP2;ratioP2;P2;SDS_P1;SDS_P2;PMS_P1;PMS_P2;Temp;Humidity;BMP_temperature;BMP_pressure;BME280_temperature;BME280_humidity;BME280_pressure;Samples;Min_cycle;Max_cycle;Signal;HPM_P1;HPM_P2
2022/06/07 00:04:41;;;;;;;8.00;6.80;;;;;;;14.78;78.69;98585.88;219627;1271;25452;-69
2022/06/07 00:09:58;;;;;;;8.50;6.70;;;;;;;14.72;78.89;98582.70;219766;1273;22547;-69
2022/06/07 00:15:36;;;;;;;10.30;9.20;;;;;;;14.71;79.22;98582.88;218694;1271;22647;-70
2022/06/07 00:21:04;;;;;;;10.80;8.20;;;;;;;14.71;79.59;98576.81;219680;1271;22656;-70
2022/06/07 00:26:28;;;;;;;10.50;8.90;;;;;;;14.75;79.95;98575.35;219655;1271;24748;-71
2022/06/07 00:31:43;;;;;;;12.10;9.70;;;;;;;14.84;80.27;98578.80;220533;1271;24380;-72
2022/06/07 00:36:55;;;;;;;13.20;11.80;;;;;;;14.97;80.58;98578.08;220723;1273;22535;-71
2022/06/07 00:42:20;;;;;;;14.90;12.90;;;;;;;15.14;81.25;98581.10;220329;1271;24265;-71
2022/06/07 00:47:47;;;;;;;14.80;12.90;;;;;;;15.31;81.57;98574.16;220319;1271;26396;-72
2022/06/07 00:53:00;;;;;;;14.40;12.60;;;;;;;15.43;81.86;98571.09;220518;1271;22541;-71
2022/06/07 00:58:43;;;;;;;;;;;;;;;;;;;;;
2022/06/07 01:04:15;;;;;;;;;;;;;;;15.53;81.61;98560.36;219581;1271;25230;-71
2022/06/07 01:15:12;;;;;;;14.00;12.50;;;;;;;15.41;81.59;98543.18;220756;1271;22538;-70
2022/06/07 01:21:07;;;;;;;14.50;12.30;;;;;;;15.36;81.48;98537.90;219415;1271;25468;-71
2022/06/07 01:26:18;;;;;;;14.70;12.60;;;;;;;15.30;81.51;98531.81;220549;1271;24266;-70
2022/06/07 01:31:25;;;;;;;17.20;12.80;;;;;;;15.22;81.47;98525.40;219548;1271;24321;-70
2022/06/07 01:36:42;;;;;;;16.30;13.10;;;;;;;15.14;81.60;98520.39;220289;1271;23263;-71
2022/06/07 01:41:55;;;;;;;14.00;12.50;;;;;;;15.07;81.93;98515.26;219477;1271;25031;-72
2022/06/07 01:47:50;;;;;;;16.60;14.00;;;;;;;15.00;82.21;98508.79;220696;1271;22569;-72
2022/06/07 01:53:22;;;;;;;18.20;15.20;;;;;;;14.95;82.39;98511.81;220765;1271;22587;-71
2022/06/07 01:58:47;;;;;;;16.50;13.80;;;;;;;14.91;82.83;98507.07;220956;1271;22561;-71
2022/06/07 02:04:13;;;;;;;;;;;;;;;;;;;;;
2022/06/07 02:09:42;;;;;;;18.40;14.60;;;;;;;14.82;83.42;98501.90;220661;1271;22540;-70
2022/06/07 02:15:03;;;;;;;16.80;15.00;;;;;;;14.76;83.64;98494.05;220761;1271;22533;-72
2022/06/07 02:21:05;;;;;;;17.70;15.10;;;;;;;14.71;83.98;98500.15;219717;1271;25307;-70
2022/06/07 02:27:03;;;;;;;17.40;14.20;;;;;;;14.65;84.11;98497.38;220598;1271;25252;-70
2022/06/07 02:32:33;;;;;;;19.50;15.20;;;;;;;14.61;84.20;98490.07;220512;1271;22556;-71
2022/06/07 02:38:07;;;;;;;17.90;14.80;;;;;;;14.58;84.18;98484.09;220472;1271;22803;-71
2022/06/07 02:43:52;;;;;;;16.20;14.00;;;;;;;14.55;84.28;98478.08;220596;1271;22528;-72
2022/06/07 02:49:55;;;;;;;;;;;;;;;;;;;;;
2022/06/07 02:55:36;;;;;;;17.80;14.90;;;;;;;14.61;84.58;98487.09;220547;1271;22559;-72
2022/06/07 03:07:00;;;;;;;18.80;14.60;;;;;;;14.70;84.81;98493.64;220831;1271;22595;-70
2022/06/07 03:12:15;;;;;;;18.40;13.60;;;;;;;14.73;84.84;98494.59;220722;1272;24457;-71
2022/06/07 03:17:40;;;;;;;17.00;13.70;;;;;;;14.80;84.96;98493.37;220827;1271;22470;-70
2022/06/07 03:22:47;;;;;;;13.40;11.80;;;;;;;15.01;85.09;98491.13;221113;1271;22561;-72
2022/06/07 03:28:22;;;;;;;14.90;12.30;;;;;;;15.28;84.62;98494.94;220667;1271;22537;-71
2022/06/07 03:33:36;;;;;;;13.00;11.70;;;;;;;15.41;83.99;98488.66;220722;1271;22550;-71
2022/06/07 03:38:49;;;;;;;13.90;11.90;;;;;;;15.47;83.53;98494.44;220895;1271;26057;-71
2022/06/07 03:44:00;;;;;;;13.10;11.40;;;;;;;15.61;83.76;98490.24;220644;1271;25484;-70
2022/06/07 03:49:16;;;;;;;12.70;11.30;;;;;;;15.93;83.47;98487.48;221009;1271;22602;-72
2022/06/07 03:54:21;;;;;;;13.50;11.20;;;;;;;16.27;82.73;98484.79;220568;1271;25401;-71
2022/06/07 03:59:38;;;;;;;12.80;10.80;;;;;;;16.62;82.01;98486.48;220643;1271;26403;-72
2022/06/07 04:05:27;;;;;;;12.80;10.50;;;;;;;16.98;81.44;98491.63;220481;1273;23045;-72
2022/06/07 04:10:59;;;;;;;12.50;10.40;;;;;;;17.25;80.69;98488.38;220467;1271;24341;-72
2022/06/07 04:16:36;;;;;;;13.70;11.40;;;;;;;17.34;80.33;98483.61;220448;1271;25494;-71
2022/06/07 04:22:28;;;;;;;15.50;11.70;;;;;;;17.34;79.92;98478.13;220525;1271;22699;-71
2022/06/07 04:27:35;;;;;;;13.10;11.40;;;;;;;17.27;79.86;98478.85;220422;1271;24323;-72
2022/06/07 04:32:56;;;;;;;;;;;;;;;;;;;;;
2022/06/07 04:37:59;;;;;;;17.10;11.70;;;;;;;17.28;79.85;98473.08;220638;1273;25159;-71
2022/06/07 04:43:10;;;;;;;14.00;11.10;;;;;;;17.26;79.90;98471.95;220858;1271;22628;-72
2022/06/07 04:48:25;;;;;;;17.10;11.80;;;;;;;17.29;80.06;98473.70;220837;1271;24415;-72
2022/06/07 04:53:42;;;;;;;15.30;10.10;;;;;;;17.36;80.14;98470.20;220923;1272;22744;-71
2022/06/07 04:58:51;;;;;;;14.40;11.60;;;;;;;17.50;80.23;98474.86;220831;1273;22548;-70
2022/06/07 05:04:03;;;;;;;12.60;10.00;;;;;;;17.62;80.11;98475.64;220975;1271;22680;-70
2022/06/07 05:09:13;;;;;;;14.00;10.30;;;;;;;17.76;80.13;98477.59;220654;1271;22528;-71
2022/06/07 05:14:16;;;;;;;13.00;9.50;;;;;;;17.99;80.28;98478.16;220714;1271;22611;-71
2022/06/07 05:19:26;;;;;;;13.20;9.90;;;;;;;18.18;79.58;98485.73;220595;1271;22578;-71
2022/06/07 05:24:37;;;;;;;12.60;10.00;;;;;;;18.32;79.19;98484.23;220872;1273;22546;-71
2022/06/07 05:29:49;;;;;;;12.50;9.40;;;;;;;18.47;79.02;98488.05;220735;1273;22538;-72
2022/06/07 05:35:14;;;;;;;11.70;9.00;;;;;;;18.70;78.96;98484.91;220807;1273;25242;-72
2022/06/07 05:40:20;;;;;;;9.70;8.00;;;;;;;18.98;79.13;98491.42;221177;1273;22617;-71
2022/06/07 05:45:23;;;;;;;11.60;9.60;;;;;;;19.19;78.13;98490.61;220834;1273;22554;-70
2022/06/07 05:50:43;;;;;;;9.30;8.40;;;;;;;19.36;77.75;98493.23;220873;1271;22598;-70
2022/06/07 05:55:47;;;;;;;9.60;8.40;;;;;;;19.57;77.27;98493.07;220903;1272;25430;-72
2022/06/07 06:00:57;;;;;;;10.90;8.40;;;;;;;19.78;77.16;98496.48;221148;1272;22581;-70
2022/06/07 06:06:01;;;;;;;8.20;6.50;;;;;;;20.02;76.57;98487.88;221330;1271;22720;-68
2022/06/07 06:11:15;;;;;;;8.80;7.10;;;;;;;20.16;75.54;98488.00;219307;1271;25458;-70
2022/06/07 06:16:30;;;;;;;7.90;6.70;;;;;;;20.33;75.51;98482.41;220904;1271;22674;-71
2022/06/07 06:21:38;;;;;;;7.40;6.10;;;;;;;20.55;74.98;98483.58;221096;1272;23143;-71
2022/06/07 06:26:42;;;;;;;8.50;5.30;;;;;;;20.73;74.55;98484.22;221569;1273;25639;-70
2022/06/07 06:31:48;;;;;;;6.50;5.70;;;;;;;20.84;73.59;98484.64;221107;1271;25472;-71
2022/06/07 06:36:51;;;;;;;8.10;6.00;;;;;;;20.99;73.39;98489.93;220774;1272;22710;-70
2022/06/07 06:42:18;;;;;;;5.80;4.90;;;;;;;21.16;72.67;98488.63;220883;1271;24864;-71
2022/06/07 06:48:16;;;;;;;8.20;6.20;;;;;;;21.33;72.17;98490.06;220991;1271;24634;-71
2022/06/07 06:53:19;;;;;;;6.20;5.60;;;;;;;21.57;72.26;98480.52;221162;1271;24230;-71
2022/06/07 06:58:25;;;;;;;6.00;5.30;;;;;;;21.73;71.05;98485.89;220907;1271;22580;-71
2022/06/07 07:03:39;;;;;;;6.20;5.40;;;;;;;21.86;70.46;98483.31;220785;1273;22576;-72
2022/06/07 07:08:46;;;;;;;7.00;5.60;;;;;;;22.07;70.33;98480.75;220919;1270;24236;-71
2022/06/07 07:13:56;;;;;;;6.10;5.00;;;;;;;22.30;69.71;98478.91;221593;1270;22578;-70
2022/06/07 07:19:05;;;;;;;6.70;5.20;;;;;;;22.47;68.70;98484.08;221181;1273;23703;-70
2022/06/07 07:24:21;;;;;;;7.20;5.80;;;;;;;22.68;68.34;98475.86;221187;1271;22768;-71
2022/06/07 07:29:38;;;;;;;;;;;;;;;;;;;;;
2022/06/07 07:34:48;;;;;;;6.50;5.80;;;;;;;23.16;67.66;98478.74;221392;1271;22620;-71
2022/06/07 07:40:00;;;;;;;7.10;6.40;;;;;;;23.37;66.92;98479.97;220857;1271;25401;-70
2022/06/07 07:45:04;;;;;;;7.00;6.30;;;;;;;23.41;65.81;98477.50;221099;1271;22604;-71
2022/06/07 07:50:07;;;;;;;7.50;6.90;;;;;;;23.53;66.08;98479.35;221111;1271;25350;-70
2022/06/07 07:55:12;;;;;;;8.10;6.40;;;;;;;23.69;65.53;98465.06;220799;1271;22576;-71
2022/06/07 08:00:17;;;;;;;9.10;6.80;;;;;;;23.76;64.42;98465.55;220755;1271;22535;-71
2022/06/07 08:05:32;;;;;;;8.80;7.10;;;;;;;23.77;64.16;98466.28;220918;1272;22565;-71
2022/06/07 08:10:36;;;;;;;9.40;7.30;;;;;;;23.94;64.58;98466.27;220977;1273;22564;-70
2022/06/07 08:15:38;;;;;;;8.70;6.70;;;;;;;24.29;64.68;98465.67;220913;1272;22602;-70
2022/06/07 08:20:50;;;;;;;;;;;;;;;24.65;64.37;98466.52;220854;1271;23073;-71
2022/06/07 08:26:07;;;;;;;7.30;5.90;;;;;;;24.87;62.60;98465.38;220973;1271;23008;-71
2022/06/07 08:31:35;;;;;;;6.40;5.80;;;;;;;24.92;61.68;98463.71;220906;1271;22570;-72
2022/06/07 08:42:49;;;;;;;7.60;6.90;;;;;;;25.35;60.34;98461.02;221309;1272;24287;-70
2022/06/07 08:48:26;;;;;;;6.20;5.50;;;;;;;25.59;59.43;98460.95;221244;1271;22531;-71
2022/06/07 08:53:48;;;;;;;6.60;5.60;;;;;;;25.81;58.53;98458.20;220806;1271;22528;-71
2022/06/07 08:59:00;;;;;;;5.10;4.70;;;;;;;26.00;57.51;98451.55;220831;1272;24213;-70
2022/06/07 09:04:11;;;;;;;5.40;5.00;;;;;;;26.20;55.98;98450.73;221676;1271;22577;-72
2022/06/07 09:09:21;;;;;;;5.20;4.70;;;;;;;26.43;55.75;98451.69;220973;1272;22622;-71
2022/06/07 09:14:42;;;;;;;5.70;4.80;;;;;;;26.35;54.10;98448.21;221078;1271;26917;-71
2022/06/07 09:19:47;;;;;;;5.90;5.10;;;;;;;26.05;54.24;98443.84;221494;1271;22704;-72
2022/06/07 09:25:03;;;;;;;5.10;4.50;;;;;;;26.30;54.50;98434.92;221178;1271;22612;-70
2022/06/07 09:30:28;;;;;;;5.00;4.40;;;;;;;26.68;53.76;98434.25;221180;1272;23844;-72
2022/06/07 09:35:40;;;;;;;4.50;4.10;;;;;;;26.97;52.57;98422.77;221045;1271;22955;-71
2022/06/07 09:41:36;;;;;;;4.40;3.80;;;;;;;27.38;52.19;98415.99;221482;1271;22585;-71
2022/06/07 09:46:29;;;;;;;9.00;4.50;;;;;;;27.95;51.17;98408.79;221206;1272;22576;-71
2022/06/07 09:51:40;;;;;;;4.00;3.70;;;;;;;28.34;49.69;98398.86;221261;1270;22719;-71
2022/06/07 09:57:15;;;;;;;4.20;3.90;;;;;;;28.50;48.21;98387.82;220956;1271;22889;-71
2022/06/07 10:02:29;;;;;;;4.30;3.60;;;;;;;28.24;46.46;98380.60;221612;1272;28488;-71
2022/06/07 10:08:08;;;;;;;3.90;3.50;;;;;;;27.85;47.13;98372.02;220856;1271;24271;-71
2022/06/07 10:13:38;;;;;;;3.50;3.30;;;;;;;27.68;47.12;98372.95;220866;1271;22913;-71
2022/06/07 10:19:06;;;;;;;3.60;3.20;;;;;;;27.53;47.32;98367.49;220878;1273;23438;-71
2022/06/07 10:24:28;;;;;;;3.70;3.50;;;;;;;27.54;47.46;98360.98;221010;1271;23208;-71
2022/06/07 10:30:24;;;;;;;3.60;3.40;;;;;;;27.65;47.58;98357.84;221158;1271;22580;-71
2022/06/07 10:35:41;;;;;;;5.00;3.60;;;;;;;28.01;47.24;98356.41;220805;1271;22599;-71
2022/06/07 10:41:11;;;;;;;3.90;3.50;;;;;;;28.46;46.38;98349.02;220855;1271;25454;-71
2022/06/07 10:46:17;;;;;;;4.20;3.80;;;;;;;28.91;45.54;98354.46;221151;1271;22636;-72
2022/06/07 10:57:00;;;;;;;4.10;3.80;;;;;;;29.57;44.73;98342.69;221090;1271;25077;-72
2022/06/07 11:02:27;;;;;;;3.90;3.60;;;;;;;29.52;44.07;98338.45;221132;1271;22502;-71
2022/06/07 11:13:50;;;;;;;4.20;3.90;;;;;;;29.14;43.88;98332.34;221216;1272;22685;-71
2022/06/07 11:18:52;;;;;;;4.80;4.40;;;;;;;28.88;43.92;98326.48;221471;1271;25270;-72
2022/06/07 11:24:22;;;;;;;5.20;4.80;;;;;;;29.04;43.61;98323.50;221020;1271;24901;-72
2022/06/07 11:29:30;;;;;;;5.00;3.90;;;;;;;29.05;43.33;98320.16;221445;1271;22555;-71
2022/06/07 11:34:36;;;;;;;3.80;3.50;;;;;;;29.18;43.50;98314.02;221281;1271;22566;-71
2022/06/07 11:40:27;;;;;;;3.50;3.30;;;;;;;29.41;43.06;98310.70;220789;1271;25412;-72
2022/06/07 11:45:29;;;;;;;4.50;4.20;;;;;;;29.73;42.17;98304.18;220797;1271;24316;-71
2022/06/07 11:50:54;;;;;;;3.70;3.40;;;;;;;29.69;40.79;98294.32;220937;1271;22567;-72
2022/06/07 11:56:23;;;;;;;4.00;3.70;;;;;;;29.78;41.42;98279.92;220863;1271;23344;-71
2022/06/07 12:01:40;;;;;;;3.10;2.90;;;;;;;29.95;40.26;98277.81;221035;1271;22537;-74
2022/06/07 12:07:13;;;;;;;6.10;3.70;;;;;;;29.70;39.49;98271.91;221252;1271;22539;-72
2022/06/07 12:12:33;;;;;;;3.10;2.70;;;;;;;29.53;39.43;98270.25;219295;1271;2697027;-72
2022/06/07 12:17:35;;;;;;;2.80;2.60;;;;;;;29.38;38.97;98259.92;221259;1272;22625;-71
2022/06/07 12:22:45;;;;;;;3.30;3.00;;;;;;;29.24;39.23;98258.42;221086;1271;25249;-71
2022/06/07 12:28:00;;;;;;;2.60;2.40;;;;;;;29.29;39.22;98250.52;221224;1272;22532;-71
2022/06/07 12:33:31;;;;;;;3.80;3.10;;;;;;;29.22;38.84;98243.09;221024;1275;23056;-71
2022/06/07 12:38:55;;;;;;;3.70;2.80;;;;;;;29.19;38.84;98236.52;221064;1274;24464;-71
2022/06/07 12:44:00;;;;;;;2.80;2.60;;;;;;;29.33;39.05;98234.19;221138;1271;22558;-71
2022/06/07 12:49:31;;;;;;;2.90;2.70;;;;;;;29.56;38.69;98235.27;221316;1271;25419;-71
2022/06/07 12:54:34;;;;;;;7.50;6.80;;;;;;;29.68;38.27;98231.89;220970;1271;22592;-74
2022/06/07 12:59:50;;;;;;;3.10;2.80;;;;;;;29.79;38.32;98226.91;221349;1271;22947;-71
2022/06/07 13:05:05;;;;;;;4.50;3.00;;;;;;;30.07;37.73;98218.44;221252;1271;26291;-72
2022/06/07 13:10:34;;;;;;;4.40;2.90;;;;;;;30.04;37.00;98216.30;221263;1271;24358;-71
2022/06/07 13:15:54;;;;;;;3.70;2.60;;;;;;;29.88;37.08;98206.98;221717;1272;22602;-72
2022/06/07 13:21:34;;;;;;;3.50;3.30;;;;;;;29.77;37.23;98212.83;221456;1272;22616;-72
2022/06/07 13:27:03;;;;;;;3.20;2.80;;;;;;;29.75;37.51;98210.30;221145;1271;22564;-71
2022/06/07 13:32:21;;;;;;;2.80;2.60;;;;;;;29.72;37.49;98202.80;221041;1273;22550;-70
2022/06/07 13:37:28;;;;;;;;;;;;;;;29.78;37.90;98203.18;221224;1272;25356;-71
2022/06/07 13:42:32;;;;;;;4.90;4.50;;;;;;;29.80;38.58;98196.61;221263;1271;22554;-72
2022/06/07 13:47:38;;;;;;;4.30;3.90;;;;;;;29.69;39.31;98193.79;221262;1271;24562;-71
2022/06/07 13:58:01;;;;;;;4.70;4.30;;;;;;;30.01;39.76;98178.27;221431;1272;24119;-71
2022/06/07 14:03:14;;;;;;;6.60;4.30;;;;;;;30.14;39.52;98171.20;220963;1272;22543;-74
2022/06/07 14:08:17;;;;;;;4.60;4.20;;;;;;;30.23;39.47;98162.23;221187;1271;25255;-72
2022/06/07 14:13:21;;;;;;;5.00;4.50;;;;;;;30.06;39.39;98164.11;221077;1271;25366;-72
2022/06/07 14:18:23;;;;;;;6.10;5.10;;;;;;;29.70;39.65;98157.49;220872;1271;22595;-70
2022/06/07 14:23:25;;;;;;;4.90;4.40;;;;;;;29.28;40.14;98152.90;220896;1271;22528;-72
2022/06/07 14:28:27;;;;;;;6.00;5.40;;;;;;;28.89;40.67;98151.30;221002;1271;22553;-72
2022/06/07 14:33:33;;;;;;;5.00;4.60;;;;;;;28.65;40.82;98150.01;220930;1271;22618;-71
2022/06/07 14:38:42;;;;;;;5.10;4.70;;;;;;;28.42;41.34;98147.84;220955;1271;25879;-71
2022/06/07 14:43:47;;;;;;;5.40;4.90;;;;;;;28.09;41.85;98145.57;221013;1271;26448;-71
2022/06/07 14:49:14;;;;;;;7.60;5.20;;;;;;;27.73;42.37;98150.67;221156;1271;22566;-70
2022/06/07 14:54:24;;;;;;;6.30;4.60;;;;;;;27.49;43.07;98150.75;221152;1271;25930;-71
2022/06/07 14:59:27;;;;;;;6.90;4.40;;;;;;;27.32;43.41;98151.16;221134;1271;22629;-70
2022/06/07 15:04:39;;;;;;;6.70;4.30;;;;;;;27.26;43.80;98153.90;220672;1271;22560;-71
2022/06/07 15:09:41;;;;;;;5.90;4.60;;;;;;;27.21;44.29;98178.08;220889;1271;26464;-71
2022/06/07 15:14:53;;;;;;;8.10;4.90;;;;;;;26.34;46.42;98192.39;221301;1272;22548;-71
2022/06/07 15:19:55;;;;;;;6.40;4.50;;;;;;;25.11;48.42;98187.93;221301;1271;22743;-71
2022/06/07 15:25:02;;;;;;;5.50;3.80;;;;;;;24.20;49.92;98193.48;221285;1271;23539;-71
2022/06/07 15:30:25;;;;;;;5.10;4.20;;;;;;;23.56;51.15;98201.80;220647;1272;25455;-71
2022/06/07 15:35:34;;;;;;;4.20;3.80;;;;;;;23.16;52.32;98200.70;220949;1274;22574;-72
2022/06/07 15:40:37;;;;;;;6.30;4.10;;;;;;;22.79;52.99;98192.77;220883;1273;22803;-72
2022/06/07 15:45:43;;;;;;;5.20;3.60;;;;;;;22.49;53.92;98187.17;220831;1273;26427;-71
2022/06/07 15:50:54;;;;;;;6.10;3.60;;;;;;;22.21;55.08;98177.48;220632;1273;24263;-71
2022/06/07 15:56:06;;;;;;;3.80;3.50;;;;;;;21.97;56.01;98168.92;220673;1273;23860;-70
2022/06/07 16:01:11;;;;;;;4.20;3.50;;;;;;;21.74;57.39;98163.61;220536;1271;22535;-71
2022/06/07 16:06:15;;;;;;;3.30;3.00;;;;;;;21.52;58.24;98181.32;220828;1271;22811;-70
2022/06/07 16:11:17;;;;;;;3.30;3.10;;;;;;;21.30;58.96;98201.80;220914;1271;26489;-70
2022/06/07 16:16:25;;;;;;;5.40;3.80;;;;;;;20.96;60.11;98221.52;221019;1271;22642;-72
2022/06/07 16:21:27;;;;;;;5.10;3.30;;;;;;;20.63;61.18;98225.98;220215;1271;25499;-70
2022/06/07 16:26:33;;;;;;;4.50;3.50;;;;;;;20.39;61.52;98244.94;219808;1271;25401;-72
2022/06/07 16:36:58;;;;;;;4.30;3.50;;;;;;;20.06;64.27;98311.25;220568;1271;22692;-71
2022/06/07 16:42:03;;;;;;;4.90;3.70;;;;;;;19.86;65.68;98326.52;220589;1271;22564;-71
2022/06/07 16:47:11;;;;;;;4.70;4.30;;;;;;;19.66;67.53;98346.70;220652;1271;24401;-71
2022/06/07 16:52:15;;;;;;;6.20;4.40;;;;;;;19.40;68.08;98355.52;220830;1272;23950;-71
2022/06/07 16:57:19;;;;;;;4.70;4.30;;;;;;;19.16;68.25;98348.11;220599;1271;26436;-71
2022/06/07 17:02:27;;;;;;;5.00;4.40;;;;;;;18.96;68.87;98349.16;219849;1271;25329;-70
2022/06/07 17:07:53;;;;;;;5.60;5.00;;;;;;;18.75;69.42;98329.30;220952;1271;22527;-72
2022/06/07 17:13:23;;;;;;;5.40;4.90;;;;;;;18.33;70.57;98321.49;220986;1271;25317;-74
2022/06/07 17:18:48;;;;;;;6.20;5.30;;;;;;;17.91;71.92;98335.10;221082;1271;22544;-73
2022/06/07 17:23:54;;;;;;;11.00;5.60;;;;;;;17.57;72.85;98351.74;221086;1273;22629;-73
2022/06/07 17:29:11;;;;;;;5.30;4.60;;;;;;;17.26;74.04;98353.74;221133;1271;22539;-72
2022/06/07 17:34:56;;;;;;;9.40;5.70;;;;;;;16.93;75.72;98359.35;220773;1273;22694;-73
2022/06/07 17:40:53;;;;;;;5.10;4.60;;;;;;;16.65;77.33;98342.73;221009;1271;25428;-71
2022/06/07 17:46:06;;;;;;;6.20;4.60;;;;;;;16.43;78.83;98334.08;221474;1271;26016;-71
2022/06/07 17:51:15;;;;;;;6.40;5.10;;;;;;;16.24;79.60;98328.76;220932;1271;25303;-72
2022/06/07 17:56:24;;;;;;;7.30;5.60;;;;;;;16.09;80.20;98322.95;220944;1271;25420;-73
2022/06/07 18:01:36;;;;;;;5.70;5.00;;;;;;;15.98;80.78;98315.58;221218;1271;22577;-73
2022/06/07 18:06:39;;;;;;;5.10;4.70;;;;;;;15.90;80.94;98306.36;220895;1271;23405;-73
2022/06/07 18:11:50;;;;;;;6.00;5.40;;;;;;;15.85;81.50;98295.00;220887;1273;22570;-74
2022/06/07 18:16:53;;;;;;;6.10;5.20;;;;;;;15.84;82.38;98296.96;220893;1273;22541;-74
2022/06/07 18:22:11;;;;;;;5.60;5.10;;;;;;;15.83;82.69;98299.11;221004;1271;22726;-73
2022/06/07 18:27:40;;;;;;;6.40;5.50;;;;;;;15.83;82.98;98298.93;221214;1271;22661;-74
2022/06/07 18:32:59;;;;;;;6.50;4.90;;;;;;;15.80;82.80;98306.88;220580;1273;22555;-74
2022/06/07 18:38:21;;;;;;;7.60;6.50;;;;;;;15.78;83.06;98304.23;220686;1271;22522;-74
2022/06/07 18:43:30;;;;;;;7.30;5.90;;;;;;;15.76;83.08;98313.10;220755;1271;22709;-73
2022/06/07 18:48:33;;;;;;;7.10;5.70;;;;;;;15.75;83.34;98311.21;221192;1271;22702;-73
2022/06/07 18:53:38;;;;;;;7.20;6.10;;;;;;;15.73;83.34;98316.89;221018;1271;22740;-73
2022/06/07 18:58:47;;;;;;;7.20;5.70;;;;;;;15.72;83.49;98328.95;221052;1271;25207;-72
2022/06/07 19:03:53;;;;;;;6.10;5.60;;;;;;;15.71;83.58;98332.08;220682;1271;22701;-72
2022/06/07 19:08:58;;;;;;;6.60;6.00;;;;;;;15.68;83.54;98339.23;220914;1272;25320;-73
2022/06/07 19:14:03;;;;;;;8.00;6.50;;;;;;;15.64;83.78;98344.66;220812;1271;26492;-73
2022/06/07 19:19:06;;;;;;;6.40;5.80;;;;;;;15.62;84.02;98353.52;220817;1271;22574;-72
2022/06/07 19:24:39;;;;;;;6.70;6.00;;;;;;;15.61;84.17;98363.04;220897;1271;23145;-73
2022/06/07 19:29:54;;;;;;;7.20;6.50;;;;;;;15.61;84.28;98366.68;220544;1271;24211;-73
2022/06/07 19:35:07;;;;;;;7.50;6.70;;;;;;;15.63;84.44;98375.76;220718;1273;22538;-72
2022/06/07 19:40:10;;;;;;;7.50;6.70;;;;;;;15.64;84.50;98376.10;220786;1273;22555;-73
2022/06/07 19:45:36;;;;;;;6.80;6.10;;;;;;;15.64;84.53;98382.84;220644;1271;22690;-73
2022/06/07 19:51:06;;;;;;;6.70;6.00;;;;;;;15.64;84.58;98379.98;220477;1273;22590;-72
2022/06/07 19:56:28;;;;;;;;;;;;;;;;;;;;;
2022/06/07 20:01:31;;;;;;;7.10;6.40;;;;;;;15.64;84.85;98376.73;220964;1271;22573;-72
2022/06/07 20:06:39;;;;;;;7.10;6.40;;;;;;;15.64;84.91;98379.66;220777;1270;22688;-71
2022/06/07 20:11:43;;;;;;;7.70;6.90;;;;;;;15.62;85.00;98372.95;220857;1271;22574;-72
2022/06/07 20:16:52;;;;;;;8.50;7.20;;;;;;;15.58;85.13;98367.35;220675;1271;25367;-72
2022/06/07 20:22:33;;;;;;;7.80;7.10;;;;;;;15.56;85.38;98372.21;220810;1271;25492;-71
2022/06/07 20:28:26;;;;;;;7.80;7.10;;;;;;;15.55;85.49;98360.52;220870;1273;24397;-72
2022/06/07 20:33:54;;;;;;;8.00;7.20;;;;;;;15.55;85.69;98358.06;220440;1275;22767;-72
2022/06/07 20:39:28;;;;;;;7.50;6.80;;;;;;;15.56;85.68;98359.23;221333;1273;22488;-72
2022/06/07 20:44:50;;;;;;;8.50;7.60;;;;;;;15.55;85.85;98361.79;220803;1273;22708;-72
2022/06/07 20:50:02;;;;;;;;;;;;;;;;;;;;;
2022/06/07 20:55:35;;;;;;;8.80;8.00;;;;;;;15.59;86.06;98358.80;220800;1271;25509;-71
2022/06/07 21:00:48;;;;;;;7.90;7.20;;;;;;;15.60;86.07;98361.93;220474;1271;22576;-73
2022/06/07 21:11:27;;;;;;;8.80;8.00;;;;;;;15.60;86.26;98364.70;220457;1271;22534;-73
2022/06/07 21:16:43;;;;;;;10.50;8.30;;;;;;;15.60;86.55;98364.64;220655;1271;24156;-72
2022/06/07 21:22:11;;;;;;;8.60;7.80;;;;;;;15.62;86.69;98368.27;220670;1271;22544;-73
2022/06/07 21:27:36;;;;;;;;;;;;;;;;;;;;;
2022/06/07 21:32:45;;;;;;;9.50;8.50;;;;;;;15.67;86.72;98367.17;220618;1273;22612;-72
2022/06/07 21:38:29;;;;;;;10.10;8.80;;;;;;;15.68;86.75;98366.69;220588;1273;22557;-72
2022/06/07 21:43:55;;;;;;;10.70;9.60;;;;;;;15.69;86.98;98356.45;220790;1273;22608;-73
2022/06/07 21:48:58;;;;;;;11.20;9.90;;;;;;;15.68;87.06;98350.59;220746;1271;25437;-71
2022/06/07 21:54:09;;;;;;;10.90;9.70;;;;;;;15.68;87.19;98347.41;220724;1273;22533;-72
2022/06/07 22:00:05;;;;;;;11.50;10.30;;;;;;;15.69;87.44;98345.80;220695;1273;25249;-72
2022/06/07 22:05:12;;;;;;;11.00;10.00;;;;;;;15.70;87.48;98335.38;220488;1273;22624;-72
2022/06/07 22:10:20;;;;;;;11.50;10.10;;;;;;;15.70;87.51;98327.48;221089;1273;22707;-73
2022/06/07 22:15:57;;;;;;;11.20;10.00;;;;;;;15.69;87.51;98322.92;220702;1272;24287;-74
2022/06/07 22:21:28;;;;;;;11.30;10.20;;;;;;;15.66;87.54;98321.34;220461;1273;22544;-72
2022/06/07 22:26:40;;;;;;;11.00;10.00;;;;;;;15.63;87.67;98324.95;220760;1271;24313;-72
2022/06/07 22:31:47;;;;;;;13.90;11.30;;;;;;;15.61;87.82;98328.04;220549;1271;22752;-73
2022/06/07 22:37:14;;;;;;;12.80;10.90;;;;;;;15.63;88.01;98329.64;220562;1271;26418;-72
2022/06/07 22:54:49;;;;;;;11.60;10.40;;;;;;;15.64;88.05;98333.85;220499;1271;22536;-72
2022/06/07 23:00:39;;;;;;;12.00;10.70;;;;;;;15.65;88.06;98339.82;220828;1273;25476;-73
2022/06/07 23:05:53;;;;;;;12.10;10.30;;;;;;;15.67;88.23;98337.89;220285;1273;22560;-73
2022/06/07 23:10:56;;;;;;;13.10;11.00;;;;;;;15.69;88.18;98326.92;220753;1273;22797;-72
2022/06/07 23:21:40;;;;;;;13.70;11.40;;;;;;;15.70;88.23;98308.38;220896;1272;22561;-71
2022/06/07 23:26:43;;;;;;;13.40;11.80;;;;;;;15.70;88.34;98309.98;220391;1273;25414;-69
2022/06/07 23:31:48;;;;;;;12.20;10.90;;;;;;;15.69;88.54;98300.00;220912;1273;22687;-72
2022/06/07 23:37:00;;;;;;;12.90;11.50;;;;;;;15.69;88.46;98296.73;220648;1273;25307;-73
2022/06/07 23:42:29;;;;;;;11.60;10.40;;;;;;;15.67;88.57;98297.90;220450;1273;24296;-73
2022/06/07 23:48:04;;;;;;;12.50;11.20;;;;;;;15.67;88.80;98298.05;221051;1271;22570;-72
2022/06/07 23:53:25;;;;;;;12.10;10.90;;;;;;;15.65;88.68;98295.31;220821;1271;22552;-71
2022/06/07 23:59:35;;;;;;;;;;;;;;;;;;;;;
